Sign in

Links

Info

Aviation weather - KDAB

METAR KDAB 241126Z 27005KT 10SM FEW009 OVC019 23/23 A2992 RMK AO2 T02280228 $

TAF KDAB 240953Z 2410/2506 26005KT P6SM VCSH BKN018 OVC025 FM241500 30007KT P6SM BKN025 FM242100 34007KT P6SM SKC

Aviation weather from ADDS. Re-check weather before flight.

-